sensor_id;sensor_type;location;lat;lon;timestamp;P1;durP1;ratioP1;P2;durP2;ratioP2
20890;SDS011;10605;52.968;8.844;2022-08-14T00:00:51;8.70;;;7.93;;
20890;SDS011;10605;52.968;8.844;2022-08-14T00:03:27;8.70;;;8.00;;
20890;SDS011;10605;52.968;8.844;2022-08-14T00:05:55;9.15;;;8.32;;
20890;SDS011;10605;52.968;8.844;2022-08-14T00:08:23;10.50;;;8.68;;
20890;SDS011;10605;52.968;8.844;2022-08-14T00:10:49;8.48;;;7.75;;
20890;SDS011;10605;52.968;8.844;2022-08-14T00:13:15;10.00;;;8.45;;
20890;SDS011;10605;52.968;8.844;2022-08-14T00:15:44;8.52;;;7.53;;
20890;SDS011;10605;52.968;8.844;2022-08-14T00:18:12;9.88;;;8.95;;
20890;SDS011;10605;52.968;8.844;2022-08-14T00:20:40;10.18;;;8.43;;
20890;SDS011;10605;52.968;8.844;2022-08-14T00:23:07;10.52;;;8.07;;
20890;SDS011;10605;52.968;8.844;2022-08-14T00:25:34;9.82;;;9.02;;
20890;SDS011;10605;52.968;8.844;2022-08-14T00:28:06;9.13;;;8.35;;
20890;SDS011;10605;52.968;8.844;2022-08-14T00:30:34;8.80;;;8.10;;
20890;SDS011;10605;52.968;8.844;2022-08-14T00:33:00;8.85;;;7.85;;
20890;SDS011;10605;52.968;8.844;2022-08-14T00:35:26;10.93;;;8.20;;
20890;SDS011;10605;52.968;8.844;2022-08-14T00:37:52;8.20;;;7.63;;
20890;SDS011;10605;52.968;8.844;2022-08-14T00:40:19;8.40;;;7.75;;
20890;SDS011;10605;52.968;8.844;2022-08-14T00:42:45;8.45;;;7.82;;
20890;SDS011;10605;52.968;8.844;2022-08-14T00:45:13;10.13;;;7.75;;
20890;SDS011;10605;52.968;8.844;2022-08-14T00:47:41;9.32;;;8.38;;
20890;SDS011;10605;52.968;8.844;2022-08-14T00:50:09;8.00;;;7.30;;
20890;SDS011;10605;52.968;8.844;2022-08-14T00:52:36;8.50;;;7.80;;
20890;SDS011;10605;52.968;8.844;2022-08-14T00:55:03;8.40;;;7.72;;
20890;SDS011;10605;52.968;8.844;2022-08-14T00:57:31;12.68;;;8.00;;
20890;SDS011;10605;52.968;8.844;2022-08-14T00:59:59;9.20;;;7.90;;
20890;SDS011;10605;52.968;8.844;2022-08-14T01:02:28;8.63;;;7.95;;
20890;SDS011;10605;52.968;8.844;2022-08-14T01:04:55;9.20;;;7.90;;
20890;SDS011;10605;52.968;8.844;2022-08-14T01:07:28;8.73;;;8.02;;
20890;SDS011;10605;52.968;8.844;2022-08-14T01:09:56;16.05;;;8.15;;
20890;SDS011;10605;52.968;8.844;2022-08-14T01:12:28;8.60;;;7.85;;
20890;SDS011;10605;52.968;8.844;2022-08-14T01:14:54;10.40;;;8.32;;
20890;SDS011;10605;52.968;8.844;2022-08-14T01:17:21;8.93;;;8.23;;
20890;SDS011;10605;52.968;8.844;2022-08-14T01:19:47;9.13;;;8.00;;
20890;SDS011;10605;52.968;8.844;2022-08-14T01:22:32;9.10;;;8.40;;
20890;SDS011;10605;52.968;8.844;2022-08-14T01:25:00;9.73;;;9.02;;
20890;SDS011;10605;52.968;8.844;2022-08-14T01:27:30;9.90;;;8.95;;
20890;SDS011;10605;52.968;8.844;2022-08-14T01:29:56;11.73;;;8.15;;
20890;SDS011;10605;52.968;8.844;2022-08-14T01:32:22;9.40;;;8.70;;
20890;SDS011;10605;52.968;8.844;2022-08-14T01:34:49;9.25;;;8.63;;
20890;SDS011;10605;52.968;8.844;2022-08-14T01:37:17;9.82;;;8.93;;
20890;SDS011;10605;52.968;8.844;2022-08-14T01:39:50;10.07;;;9.07;;
20890;SDS011;10605;52.968;8.844;2022-08-14T01:42:19;8.65;;;8.05;;
20890;SDS011;10605;52.968;8.844;2022-08-14T01:44:46;8.57;;;7.97;;
20890;SDS011;10605;52.968;8.844;2022-08-14T01:47:19;9.60;;;8.70;;
20890;SDS011;10605;52.968;8.844;2022-08-14T01:49:44;10.32;;;9.43;;
20890;SDS011;10605;52.968;8.844;2022-08-14T01:52:10;10.60;;;9.65;;
20890;SDS011;10605;52.968;8.844;2022-08-14T01:54:39;18.00;;;9.57;;
20890;SDS011;10605;52.968;8.844;2022-08-14T01:57:05;11.68;;;8.80;;
20890;SDS011;10605;52.968;8.844;2022-08-14T01:59:35;18.83;;;10.10;;
20890;SDS011;10605;52.968;8.844;2022-08-14T02:02:04;14.30;;;8.77;;
20890;SDS011;10605;52.968;8.844;2022-08-14T02:04:36;9.73;;;9.02;;
20890;SDS011;10605;52.968;8.844;2022-08-14T02:07:03;9.60;;;8.77;;
20890;SDS011;10605;52.968;8.844;2022-08-14T02:09:33;13.80;;;9.05;;
20890;SDS011;10605;52.968;8.844;2022-08-14T02:12:02;38.28;;;10.70;;
20890;SDS011;10605;52.968;8.844;2022-08-14T02:14:29;16.08;;;8.73;;
20890;SDS011;10605;52.968;8.844;2022-08-14T02:16:55;10.95;;;8.48;;
20890;SDS011;10605;52.968;8.844;2022-08-14T02:19:23;15.57;;;9.65;;
20890;SDS011;10605;52.968;8.844;2022-08-14T02:21:52;16.42;;;10.43;;
20890;SDS011;10605;52.968;8.844;2022-08-14T02:24:20;12.57;;;9.73;;
20890;SDS011;10605;52.968;8.844;2022-08-14T02:26:48;10.00;;;9.07;;
20890;SDS011;10605;52.968;8.844;2022-08-14T02:29:19;10.60;;;9.60;;
20890;SDS011;10605;52.968;8.844;2022-08-14T02:31:47;10.75;;;9.85;;
20890;SDS011;10605;52.968;8.844;2022-08-14T02:34:20;10.02;;;9.23;;
20890;SDS011;10605;52.968;8.844;2022-08-14T02:36:59;11.23;;;10.13;;
20890;SDS011;10605;52.968;8.844;2022-08-14T02:39:28;13.43;;;9.88;;
20890;SDS011;10605;52.968;8.844;2022-08-14T02:41:54;10.52;;;9.63;;
20890;SDS011;10605;52.968;8.844;2022-08-14T02:44:20;11.20;;;9.85;;
20890;SDS011;10605;52.968;8.844;2022-08-14T02:46:47;12.52;;;11.25;;
20890;SDS011;10605;52.968;8.844;2022-08-14T02:49:14;11.60;;;10.57;;
20890;SDS011;10605;52.968;8.844;2022-08-14T02:51:41;10.23;;;9.52;;
20890;SDS011;10605;52.968;8.844;2022-08-14T02:54:11;10.70;;;9.75;;
20890;SDS011;10605;52.968;8.844;2022-08-14T02:56:38;11.32;;;10.23;;
20890;SDS011;10605;52.968;8.844;2022-08-14T02:59:04;11.13;;;10.02;;
20890;SDS011;10605;52.968;8.844;2022-08-14T03:01:32;11.30;;;10.50;;
20890;SDS011;10605;52.968;8.844;2022-08-14T03:03:58;18.35;;;11.45;;
20890;SDS011;10605;52.968;8.844;2022-08-14T03:06:24;13.25;;;11.85;;
20890;SDS011;10605;52.968;8.844;2022-08-14T03:08:51;11.50;;;10.60;;
20890;SDS011;10605;52.968;8.844;2022-08-14T03:11:18;11.20;;;10.35;;
20890;SDS011;10605;52.968;8.844;2022-08-14T03:13:46;12.18;;;11.18;;
20890;SDS011;10605;52.968;8.844;2022-08-14T03:16:17;12.00;;;10.90;;
20890;SDS011;10605;52.968;8.844;2022-08-14T03:18:48;12.60;;;11.60;;
20890;SDS011;10605;52.968;8.844;2022-08-14T03:21:17;12.48;;;11.27;;
20890;SDS011;10605;52.968;8.844;2022-08-14T03:23:46;15.30;;;11.43;;
20890;SDS011;10605;52.968;8.844;2022-08-14T03:26:15;13.60;;;12.32;;
20890;SDS011;10605;52.968;8.844;2022-08-14T03:28:47;14.05;;;12.32;;
20890;SDS011;10605;52.968;8.844;2022-08-14T03:31:14;13.00;;;11.70;;
20890;SDS011;10605;52.968;8.844;2022-08-14T03:33:42;11.73;;;10.93;;
20890;SDS011;10605;52.968;8.844;2022-08-14T03:36:12;13.55;;;12.23;;
20890;SDS011;10605;52.968;8.844;2022-08-14T03:38:43;12.48;;;11.38;;
20890;SDS011;10605;52.968;8.844;2022-08-14T03:41:10;12.77;;;11.68;;
20890;SDS011;10605;52.968;8.844;2022-08-14T03:43:41;12.00;;;11.18;;
20890;SDS011;10605;52.968;8.844;2022-08-14T03:46:07;13.80;;;12.60;;
20890;SDS011;10605;52.968;8.844;2022-08-14T03:48:35;14.10;;;11.25;;
20890;SDS011;10605;52.968;8.844;2022-08-14T03:51:04;15.05;;;12.45;;
20890;SDS011;10605;52.968;8.844;2022-08-14T03:53:32;13.02;;;11.75;;
20890;SDS011;10605;52.968;8.844;2022-08-14T03:56:02;13.75;;;11.98;;
20890;SDS011;10605;52.968;8.844;2022-08-14T03:58:30;14.07;;;12.20;;
20890;SDS011;10605;52.968;8.844;2022-08-14T04:00:57;13.57;;;12.43;;
20890;SDS011;10605;52.968;8.844;2022-08-14T04:03:23;13.10;;;11.95;;
20890;SDS011;10605;52.968;8.844;2022-08-14T04:05:52;13.50;;;12.20;;
20890;SDS011;10605;52.968;8.844;2022-08-14T04:08:18;13.15;;;11.95;;
20890;SDS011;10605;52.968;8.844;2022-08-14T04:10:44;14.02;;;12.63;;
20890;SDS011;10605;52.968;8.844;2022-08-14T04:13:10;13.00;;;12.00;;
20890;SDS011;10605;52.968;8.844;2022-08-14T04:15:37;13.95;;;12.75;;
20890;SDS011;10605;52.968;8.844;2022-08-14T04:18:03;12.73;;;11.73;;
20890;SDS011;10605;52.968;8.844;2022-08-14T04:20:36;13.63;;;12.45;;
20890;SDS011;10605;52.968;8.844;2022-08-14T04:23:09;14.27;;;13.05;;
20890;SDS011;10605;52.968;8.844;2022-08-14T04:25:35;14.88;;;13.68;;
20890;SDS011;10605;52.968;8.844;2022-08-14T04:28:02;22.50;;;12.90;;
20890;SDS011;10605;52.968;8.844;2022-08-14T04:30:33;15.75;;;12.77;;
20890;SDS011;10605;52.968;8.844;2022-08-14T04:33:03;14.75;;;13.25;;
20890;SDS011;10605;52.968;8.844;2022-08-14T04:35:31;16.75;;;13.25;;
20890;SDS011;10605;52.968;8.844;2022-08-14T04:37:57;18.15;;;13.00;;
20890;SDS011;10605;52.968;8.844;2022-08-14T04:40:42;16.13;;;13.30;;
20890;SDS011;10605;52.968;8.844;2022-08-14T04:43:26;14.15;;;12.77;;
20890;SDS011;10605;52.968;8.844;2022-08-14T04:46:14;17.52;;;12.55;;
20890;SDS011;10605;52.968;8.844;2022-08-14T04:48:44;19.33;;;12.70;;
20890;SDS011;10605;52.968;8.844;2022-08-14T04:51:13;13.13;;;12.13;;
20890;SDS011;10605;52.968;8.844;2022-08-14T04:53:41;17.45;;;13.00;;
20890;SDS011;10605;52.968;8.844;2022-08-14T04:56:12;16.10;;;12.23;;
20890;SDS011;10605;52.968;8.844;2022-08-14T04:58:40;14.05;;;12.10;;
20890;SDS011;10605;52.968;8.844;2022-08-14T05:01:07;14.18;;;12.05;;
20890;SDS011;10605;52.968;8.844;2022-08-14T05:03:35;14.10;;;11.80;;
20890;SDS011;10605;52.968;8.844;2022-08-14T05:06:03;15.25;;;10.57;;
20890;SDS011;10605;52.968;8.844;2022-08-14T05:08:32;14.30;;;10.50;;
20890;SDS011;10605;52.968;8.844;2022-08-14T05:10:58;11.75;;;10.68;;
20890;SDS011;10605;52.968;8.844;2022-08-14T05:13:27;13.10;;;11.30;;
20890;SDS011;10605;52.968;8.844;2022-08-14T05:15:54;11.65;;;9.23;;
20890;SDS011;10605;52.968;8.844;2022-08-14T05:18:23;9.65;;;9.05;;
20890;SDS011;10605;52.968;8.844;2022-08-14T05:20:51;10.38;;;9.35;;
20890;SDS011;10605;52.968;8.844;2022-08-14T05:23:19;9.20;;;8.50;;
20890;SDS011;10605;52.968;8.844;2022-08-14T05:25:47;11.48;;;8.63;;
20890;SDS011;10605;52.968;8.844;2022-08-14T05:28:14;9.13;;;8.48;;
20890;SDS011;10605;52.968;8.844;2022-08-14T05:30:46;8.20;;;7.60;;
20890;SDS011;10605;52.968;8.844;2022-08-14T05:33:17;8.57;;;8.00;;
20890;SDS011;10605;52.968;8.844;2022-08-14T05:35:45;10.07;;;8.00;;
20890;SDS011;10605;52.968;8.844;2022-08-14T05:38:13;8.20;;;7.57;;
20890;SDS011;10605;52.968;8.844;2022-08-14T05:40:44;8.27;;;7.20;;
20890;SDS011;10605;52.968;8.844;2022-08-14T05:43:11;7.88;;;7.38;;
20890;SDS011;10605;52.968;8.844;2022-08-14T05:45:39;8.15;;;7.40;;
20890;SDS011;10605;52.968;8.844;2022-08-14T05:48:05;7.10;;;6.60;;
20890;SDS011;10605;52.968;8.844;2022-08-14T05:50:32;7.30;;;6.80;;
20890;SDS011;10605;52.968;8.844;2022-08-14T05:52:59;7.32;;;6.85;;
20890;SDS011;10605;52.968;8.844;2022-08-14T05:55:25;7.05;;;6.45;;
20890;SDS011;10605;52.968;8.844;2022-08-14T06:00:19;8.45;;;6.57;;
20890;SDS011;10605;52.968;8.844;2022-08-14T06:02:48;6.72;;;6.18;;
20890;SDS011;10605;52.968;8.844;2022-08-14T06:05:14;6.97;;;6.47;;
20890;SDS011;10605;52.968;8.844;2022-08-14T06:07:40;6.95;;;6.45;;
20890;SDS011;10605;52.968;8.844;2022-08-14T06:10:07;6.53;;;5.93;;
20890;SDS011;10605;52.968;8.844;2022-08-14T06:12:34;6.40;;;6.00;;
20890;SDS011;10605;52.968;8.844;2022-08-14T06:15:00;8.45;;;6.47;;
20890;SDS011;10605;52.968;8.844;2022-08-14T06:17:26;6.90;;;6.50;;
20890;SDS011;10605;52.968;8.844;2022-08-14T06:19:52;6.47;;;6.07;;
20890;SDS011;10605;52.968;8.844;2022-08-14T06:22:18;5.78;;;5.40;;
20890;SDS011;10605;52.968;8.844;2022-08-14T06:24:44;9.55;;;5.95;;
20890;SDS011;10605;52.968;8.844;2022-08-14T06:27:09;6.95;;;6.28;;
20890;SDS011;10605;52.968;8.844;2022-08-14T06:29:35;8.07;;;5.78;;
20890;SDS011;10605;52.968;8.844;2022-08-14T06:32:02;6.22;;;5.85;;
20890;SDS011;10605;52.968;8.844;2022-08-14T06:34:29;5.85;;;5.43;;
20890;SDS011;10605;52.968;8.844;2022-08-14T06:36:55;7.93;;;5.40;;
20890;SDS011;10605;52.968;8.844;2022-08-14T06:39:21;5.88;;;5.45;;
20890;SDS011;10605;52.968;8.844;2022-08-14T06:41:48;6.13;;;5.53;;
20890;SDS011;10605;52.968;8.844;2022-08-14T06:44:13;5.28;;;4.90;;
20890;SDS011;10605;52.968;8.844;2022-08-14T06:46:39;9.98;;;5.22;;
20890;SDS011;10605;52.968;8.844;2022-08-14T06:49:04;5.80;;;5.18;;
20890;SDS011;10605;52.968;8.844;2022-08-14T06:51:30;5.10;;;4.80;;
20890;SDS011;10605;52.968;8.844;2022-08-14T06:53:57;5.72;;;4.78;;
20890;SDS011;10605;52.968;8.844;2022-08-14T06:56:22;8.80;;;4.82;;
20890;SDS011;10605;52.968;8.844;2022-08-14T06:58:48;6.18;;;4.85;;
20890;SDS011;10605;52.968;8.844;2022-08-14T07:01:14;5.50;;;4.75;;
20890;SDS011;10605;52.968;8.844;2022-08-14T07:03:58;7.25;;;4.95;;
20890;SDS011;10605;52.968;8.844;2022-08-14T07:06:43;5.50;;;5.10;;
20890;SDS011;10605;52.968;8.844;2022-08-14T07:09:09;5.18;;;4.68;;
20890;SDS011;10605;52.968;8.844;2022-08-14T07:11:35;6.40;;;5.07;;
20890;SDS011;10605;52.968;8.844;2022-08-14T07:14:02;9.18;;;5.50;;
20890;SDS011;10605;52.968;8.844;2022-08-14T07:16:28;6.35;;;5.38;;
20890;SDS011;10605;52.968;8.844;2022-08-14T07:18:55;16.42;;;5.55;;
20890;SDS011;10605;52.968;8.844;2022-08-14T07:21:21;5.93;;;5.50;;
20890;SDS011;10605;52.968;8.844;2022-08-14T07:23:47;5.13;;;4.72;;
20890;SDS011;10605;52.968;8.844;2022-08-14T07:26:13;6.68;;;4.93;;
20890;SDS011;10605;52.968;8.844;2022-08-14T07:28:42;5.00;;;4.70;;
20890;SDS011;10605;52.968;8.844;2022-08-14T07:31:10;5.05;;;4.75;;
20890;SDS011;10605;52.968;8.844;2022-08-14T07:33:41;4.70;;;4.38;;
20890;SDS011;10605;52.968;8.844;2022-08-14T07:36:10;5.95;;;4.80;;
20890;SDS011;10605;52.968;8.844;2022-08-14T07:38:38;5.03;;;4.63;;
20890;SDS011;10605;52.968;8.844;2022-08-14T07:41:11;5.05;;;4.65;;
20890;SDS011;10605;52.968;8.844;2022-08-14T07:43:37;9.65;;;4.50;;
20890;SDS011;10605;52.968;8.844;2022-08-14T07:46:08;4.90;;;4.47;;
20890;SDS011;10605;52.968;8.844;2022-08-14T07:48:37;4.55;;;4.25;;
20890;SDS011;10605;52.968;8.844;2022-08-14T07:51:04;4.97;;;4.57;;
20890;SDS011;10605;52.968;8.844;2022-08-14T07:53:31;5.20;;;4.40;;
20890;SDS011;10605;52.968;8.844;2022-08-14T07:55:57;4.90;;;4.50;;
20890;SDS011;10605;52.968;8.844;2022-08-14T07:58:23;4.72;;;4.35;;
20890;SDS011;10605;52.968;8.844;2022-08-14T08:00:49;4.60;;;4.10;;
20890;SDS011;10605;52.968;8.844;2022-08-14T08:03:18;5.88;;;4.28;;
20890;SDS011;10605;52.968;8.844;2022-08-14T08:05:45;5.32;;;4.88;;
20890;SDS011;10605;52.968;8.844;2022-08-14T08:08:10;4.82;;;4.22;;
20890;SDS011;10605;52.968;8.844;2022-08-14T08:10:37;4.50;;;4.05;;
20890;SDS011;10605;52.968;8.844;2022-08-14T08:15:39;5.13;;;4.82;;
20890;SDS011;10605;52.968;8.844;2022-08-14T08:18:09;5.03;;;4.35;;
20890;SDS011;10605;52.968;8.844;2022-08-14T08:20:39;5.10;;;4.80;;
20890;SDS011;10605;52.968;8.844;2022-08-14T08:23:07;5.00;;;4.60;;
20890;SDS011;10605;52.968;8.844;2022-08-14T08:25:37;6.20;;;4.35;;
20890;SDS011;10605;52.968;8.844;2022-08-14T08:28:05;4.82;;;4.40;;
20890;SDS011;10605;52.968;8.844;2022-08-14T08:30:34;6.50;;;4.13;;
20890;SDS011;10605;52.968;8.844;2022-08-14T08:33:02;4.70;;;4.30;;
20890;SDS011;10605;52.968;8.844;2022-08-14T08:35:29;4.40;;;4.10;;
20890;SDS011;10605;52.968;8.844;2022-08-14T08:38:17;4.35;;;4.10;;
20890;SDS011;10605;52.968;8.844;2022-08-14T08:40:45;6.05;;;4.18;;
20890;SDS011;10605;52.968;8.844;2022-08-14T08:43:23;4.22;;;4.03;;
20890;SDS011;10605;52.968;8.844;2022-08-14T08:46:07;4.63;;;4.30;;
20890;SDS011;10605;52.968;8.844;2022-08-14T08:51:23;8.40;;;4.72;;
20890;SDS011;10605;52.968;8.844;2022-08-14T08:54:05;4.47;;;4.18;;
20890;SDS011;10605;52.968;8.844;2022-08-14T08:59:02;4.63;;;4.38;;
20890;SDS011;10605;52.968;8.844;2022-08-14T09:01:46;5.10;;;4.78;;
20890;SDS011;10605;52.968;8.844;2022-08-14T09:04:26;4.82;;;4.55;;
20890;SDS011;10605;52.968;8.844;2022-08-14T09:06:53;5.20;;;4.38;;
20890;SDS011;10605;52.968;8.844;2022-08-14T09:09:19;7.35;;;5.20;;
20890;SDS011;10605;52.968;8.844;2022-08-14T09:11:50;6.30;;;4.40;;
20890;SDS011;10605;52.968;8.844;2022-08-14T09:14:23;7.18;;;5.05;;
20890;SDS011;10605;52.968;8.844;2022-08-14T09:16:50;5.40;;;4.82;;
20890;SDS011;10605;52.968;8.844;2022-08-14T09:19:16;6.18;;;5.13;;
20890;SDS011;10605;52.968;8.844;2022-08-14T09:21:42;5.25;;;4.85;;
20890;SDS011;10605;52.968;8.844;2022-08-14T09:24:10;6.82;;;5.30;;
20890;SDS011;10605;52.968;8.844;2022-08-14T09:26:37;6.18;;;4.97;;
20890;SDS011;10605;52.968;8.844;2022-08-14T09:29:04;6.30;;;4.75;;
20890;SDS011;10605;52.968;8.844;2022-08-14T09:31:33;5.03;;;4.65;;
20890;SDS011;10605;52.968;8.844;2022-08-14T09:44:46;5.30;;;4.80;;
20890;SDS011;10605;52.968;8.844;2022-08-14T09:50:14;5.40;;;4.90;;
20890;SDS011;10605;52.968;8.844;2022-08-14T09:52:57;5.28;;;4.88;;
20890;SDS011;10605;52.968;8.844;2022-08-14T09:55:28;5.05;;;4.75;;
20890;SDS011;10605;52.968;8.844;2022-08-14T09:58:07;11.32;;;5.32;;
20890;SDS011;10605;52.968;8.844;2022-08-14T10:00:44;5.75;;;5.03;;
20890;SDS011;10605;52.968;8.844;2022-08-14T10:03:10;5.72;;;5.13;;
20890;SDS011;10605;52.968;8.844;2022-08-14T10:05:37;5.32;;;4.50;;
20890;SDS011;10605;52.968;8.844;2022-08-14T10:08:03;5.07;;;4.68;;
20890;SDS011;10605;52.968;8.844;2022-08-14T10:10:42;5.97;;;5.20;;
20890;SDS011;10605;52.968;8.844;2022-08-14T10:13:41;5.18;;;4.60;;
20890;SDS011;10605;52.968;8.844;2022-08-14T10:15:59;5.35;;;4.72;;
20890;SDS011;10605;52.968;8.844;2022-08-14T10:18:26;18.00;;;4.93;;
20890;SDS011;10605;52.968;8.844;2022-08-14T10:20:56;8.50;;;5.13;;
20890;SDS011;10605;52.968;8.844;2022-08-14T10:23:25;5.45;;;4.90;;
20890;SDS011;10605;52.968;8.844;2022-08-14T10:25:56;4.93;;;4.53;;
20890;SDS011;10605;52.968;8.844;2022-08-14T10:28:36;4.75;;;4.45;;
20890;SDS011;10605;52.968;8.844;2022-08-14T10:31:03;5.78;;;4.40;;
20890;SDS011;10605;52.968;8.844;2022-08-14T10:33:41;4.90;;;4.60;;
20890;SDS011;10605;52.968;8.844;2022-08-14T10:36:07;5.38;;;4.50;;
20890;SDS011;10605;52.968;8.844;2022-08-14T10:38:35;4.97;;;4.40;;
20890;SDS011;10605;52.968;8.844;2022-08-14T10:41:14;8.82;;;4.88;;
20890;SDS011;10605;52.968;8.844;2022-08-14T10:43:41;5.15;;;4.55;;
20890;SDS011;10605;52.968;8.844;2022-08-14T10:46:14;7.13;;;4.80;;
20890;SDS011;10605;52.968;8.844;2022-08-14T10:48:55;7.03;;;4.20;;
20890;SDS011;10605;52.968;8.844;2022-08-14T10:51:27;5.45;;;4.55;;
20890;SDS011;10605;52.968;8.844;2022-08-14T10:53:54;5.10;;;4.75;;
20890;SDS011;10605;52.968;8.844;2022-08-14T10:56:30;5.57;;;4.90;;
20890;SDS011;10605;52.968;8.844;2022-08-14T10:59:04;4.93;;;4.60;;
20890;SDS011;10605;52.968;8.844;2022-08-14T11:01:32;5.90;;;4.47;;
20890;SDS011;10605;52.968;8.844;2022-08-14T11:03:59;5.25;;;4.93;;
20890;SDS011;10605;52.968;8.844;2022-08-14T11:06:26;5.30;;;4.90;;
20890;SDS011;10605;52.968;8.844;2022-08-14T11:08:54;4.97;;;4.43;;
20890;SDS011;10605;52.968;8.844;2022-08-14T11:11:20;4.75;;;4.45;;
20890;SDS011;10605;52.968;8.844;2022-08-14T11:13:49;5.20;;;4.70;;
20890;SDS011;10605;52.968;8.844;2022-08-14T11:16:15;4.72;;;4.43;;
20890;SDS011;10605;52.968;8.844;2022-08-14T11:18:44;4.82;;;4.35;;
20890;SDS011;10605;52.968;8.844;2022-08-14T11:21:16;4.63;;;4.35;;
20890;SDS011;10605;52.968;8.844;2022-08-14T11:23:46;5.75;;;4.32;;
20890;SDS011;10605;52.968;8.844;2022-08-14T11:26:16;5.10;;;4.35;;
20890;SDS011;10605;52.968;8.844;2022-08-14T11:28:44;4.63;;;4.22;;
20890;SDS011;10605;52.968;8.844;2022-08-14T11:31:12;4.63;;;4.32;;
20890;SDS011;10605;52.968;8.844;2022-08-14T11:33:51;4.60;;;4.30;;
20890;SDS011;10605;52.968;8.844;2022-08-14T11:36:22;4.95;;;4.55;;
20890;SDS011;10605;52.968;8.844;2022-08-14T11:38:52;4.65;;;4.35;;
20890;SDS011;10605;52.968;8.844;2022-08-14T11:41:19;4.90;;;4.50;;
20890;SDS011;10605;52.968;8.844;2022-08-14T11:43:46;5.47;;;4.40;;
20890;SDS011;10605;52.968;8.844;2022-08-14T11:46:13;5.10;;;4.55;;
20890;SDS011;10605;52.968;8.844;2022-08-14T11:48:50;4.13;;;3.75;;
20890;SDS011;10605;52.968;8.844;2022-08-14T11:51:21;6.38;;;4.70;;
20890;SDS011;10605;52.968;8.844;2022-08-14T11:53:51;8.00;;;4.00;;
20890;SDS011;10605;52.968;8.844;2022-08-14T11:56:19;5.18;;;4.13;;
20890;SDS011;10605;52.968;8.844;2022-08-14T11:58:48;4.15;;;3.85;;
20890;SDS011;10605;52.968;8.844;2022-08-14T12:01:16;5.28;;;4.10;;
20890;SDS011;10605;52.968;8.844;2022-08-14T12:03:52;4.55;;;4.20;;
20890;SDS011;10605;52.968;8.844;2022-08-14T12:06:20;4.75;;;4.28;;
20890;SDS011;10605;52.968;8.844;2022-08-14T12:08:46;4.32;;;4.03;;
20890;SDS011;10605;52.968;8.844;2022-08-14T12:11:17;4.40;;;4.00;;
20890;SDS011;10605;52.968;8.844;2022-08-14T12:13:44;7.40;;;4.47;;
20890;SDS011;10605;52.968;8.844;2022-08-14T12:16:12;4.63;;;4.35;;
20890;SDS011;10605;52.968;8.844;2022-08-14T12:18:43;6.70;;;4.68;;
20890;SDS011;10605;52.968;8.844;2022-08-14T12:21:21;4.60;;;4.20;;
20890;SDS011;10605;52.968;8.844;2022-08-14T12:24:07;7.25;;;4.90;;
20890;SDS011;10605;52.968;8.844;2022-08-14T12:26:34;4.53;;;4.22;;
20890;SDS011;10605;52.968;8.844;2022-08-14T12:31:35;4.82;;;4.45;;
20890;SDS011;10605;52.968;8.844;2022-08-14T12:34:07;5.18;;;4.78;;
20890;SDS011;10605;52.968;8.844;2022-08-14T12:36:34;5.20;;;4.68;;
20890;SDS011;10605;52.968;8.844;2022-08-14T12:39:04;8.73;;;4.88;;
20890;SDS011;10605;52.968;8.844;2022-08-14T12:41:47;4.90;;;4.57;;
20890;SDS011;10605;52.968;8.844;2022-08-14T12:44:27;5.15;;;4.65;;
20890;SDS011;10605;52.968;8.844;2022-08-14T12:47:04;5.30;;;4.38;;
20890;SDS011;10605;52.968;8.844;2022-08-14T12:49:37;5.03;;;4.63;;
20890;SDS011;10605;52.968;8.844;2022-08-14T12:52:03;4.47;;;4.18;;
20890;SDS011;10605;52.968;8.844;2022-08-14T12:54:31;5.85;;;4.45;;
20890;SDS011;10605;52.968;8.844;2022-08-14T12:59:37;4.90;;;4.32;;
20890;SDS011;10605;52.968;8.844;2022-08-14T13:02:03;10.05;;;4.53;;
20890;SDS011;10605;52.968;8.844;2022-08-14T13:04:30;7.25;;;4.95;;
20890;SDS011;10605;52.968;8.844;2022-08-14T13:06:59;6.55;;;5.00;;
20890;SDS011;10605;52.968;8.844;2022-08-14T13:09:32;5.50;;;5.18;;
20890;SDS011;10605;52.968;8.844;2022-08-14T13:11:59;7.32;;;5.30;;
20890;SDS011;10605;52.968;8.844;2022-08-14T13:14:29;6.05;;;5.15;;
20890;SDS011;10605;52.968;8.844;2022-08-14T13:16:57;5.03;;;4.53;;
20890;SDS011;10605;52.968;8.844;2022-08-14T13:19:25;5.88;;;4.97;;
20890;SDS011;10605;52.968;8.844;2022-08-14T13:21:52;6.03;;;5.40;;
20890;SDS011;10605;52.968;8.844;2022-08-14T13:24:19;5.18;;;4.88;;
20890;SDS011;10605;52.968;8.844;2022-08-14T13:26:48;9.35;;;4.80;;
20890;SDS011;10605;52.968;8.844;2022-08-14T13:29:23;8.27;;;4.93;;
20890;SDS011;10605;52.968;8.844;2022-08-14T13:31:53;7.13;;;4.90;;
20890;SDS011;10605;52.968;8.844;2022-08-14T13:34:25;5.10;;;4.80;;
20890;SDS011;10605;52.968;8.844;2022-08-14T13:36:52;9.60;;;5.65;;
20890;SDS011;10605;52.968;8.844;2022-08-14T13:39:22;5.50;;;4.68;;
20890;SDS011;10605;52.968;8.844;2022-08-14T13:41:48;5.22;;;4.75;;
20890;SDS011;10605;52.968;8.844;2022-08-14T13:44:15;5.38;;;4.93;;
20890;SDS011;10605;52.968;8.844;2022-08-14T13:46:44;4.60;;;4.30;;
20890;SDS011;10605;52.968;8.844;2022-08-14T13:49:11;11.02;;;5.10;;
20890;SDS011;10605;52.968;8.844;2022-08-14T13:51:38;5.78;;;5.18;;
20890;SDS011;10605;52.968;8.844;2022-08-14T13:54:07;5.20;;;4.90;;
20890;SDS011;10605;52.968;8.844;2022-08-14T13:56:37;9.55;;;5.22;;
20890;SDS011;10605;52.968;8.844;2022-08-14T13:59:05;5.53;;;4.82;;
20890;SDS011;10605;52.968;8.844;2022-08-14T14:01:31;5.55;;;5.10;;
20890;SDS011;10605;52.968;8.844;2022-08-14T14:03:59;6.97;;;4.60;;
20890;SDS011;10605;52.968;8.844;2022-08-14T14:06:27;6.20;;;5.57;;
20890;SDS011;10605;52.968;8.844;2022-08-14T14:08:54;6.90;;;5.50;;
20890;SDS011;10605;52.968;8.844;2022-08-14T14:11:21;7.63;;;5.38;;
20890;SDS011;10605;52.968;8.844;2022-08-14T14:13:50;12.70;;;5.32;;
20890;SDS011;10605;52.968;8.844;2022-08-14T14:16:20;6.78;;;5.22;;
20890;SDS011;10605;52.968;8.844;2022-08-14T14:18:47;14.60;;;5.00;;
20890;SDS011;10605;52.968;8.844;2022-08-14T14:21:20;5.25;;;4.85;;
20890;SDS011;10605;52.968;8.844;2022-08-14T14:23:48;5.70;;;5.20;;
20890;SDS011;10605;52.968;8.844;2022-08-14T14:26:16;5.75;;;4.40;;
20890;SDS011;10605;52.968;8.844;2022-08-14T14:28:43;5.65;;;5.25;;
20890;SDS011;10605;52.968;8.844;2022-08-14T14:31:20;6.70;;;4.47;;
20890;SDS011;10605;52.968;8.844;2022-08-14T14:33:55;5.18;;;4.88;;
20890;SDS011;10605;52.968;8.844;2022-08-14T14:36:23;5.70;;;4.85;;
20890;SDS011;10605;52.968;8.844;2022-08-14T14:38:59;7.78;;;5.40;;
20890;SDS011;10605;52.968;8.844;2022-08-14T14:41:28;5.32;;;4.93;;
20890;SDS011;10605;52.968;8.844;2022-08-14T14:43:57;5.85;;;5.35;;
20890;SDS011;10605;52.968;8.844;2022-08-14T14:46:25;5.82;;;5.38;;
20890;SDS011;10605;52.968;8.844;2022-08-14T14:48:57;12.07;;;5.35;;
20890;SDS011;10605;52.968;8.844;2022-08-14T14:51:25;7.25;;;5.20;;
20890;SDS011;10605;52.968;8.844;2022-08-14T14:53:51;7.90;;;5.30;;
20890;SDS011;10605;52.968;8.844;2022-08-14T14:56:17;5.63;;;5.15;;
20890;SDS011;10605;52.968;8.844;2022-08-14T14:58:44;19.88;;;5.97;;
20890;SDS011;10605;52.968;8.844;2022-08-14T15:01:10;5.40;;;5.00;;
20890;SDS011;10605;52.968;8.844;2022-08-14T15:03:39;9.75;;;5.22;;
20890;SDS011;10605;52.968;8.844;2022-08-14T15:06:08;5.38;;;4.88;;
20890;SDS011;10605;52.968;8.844;2022-08-14T15:08:34;5.75;;;5.15;;
20890;SDS011;10605;52.968;8.844;2022-08-14T15:11:00;5.63;;;4.80;;
20890;SDS011;10605;52.968;8.844;2022-08-14T15:13:27;5.45;;;5.03;;
20890;SDS011;10605;52.968;8.844;2022-08-14T15:15:53;5.75;;;5.28;;
20890;SDS011;10605;52.968;8.844;2022-08-14T15:18:21;5.80;;;5.43;;
20890;SDS011;10605;52.968;8.844;2022-08-14T15:20:47;8.95;;;4.90;;